Time;durP1;ratioP1;P1;durP2;ratioP2;P2;SDS_P1;SDS_P2;PMS_P1;PMS_P2;Temp;Humidity;BMP_temperature;BMP_pressure;BME280_temperature;BME280_humidity;BME280_pressure;Samples;Min_cycle;Max_cycle;Signal;HPM_P1;HPM_P2
2022/10/09 00:01:05;;;;;;;19.12;11.18;;;;;;;14.03;76.43;100408.69;5369657;26;34179;-80
2022/10/09 00:03:33;;;;;;;15.87;10.20;;;;;;;13.70;77.89;100409.97;5389522;26;34043;-81
2022/10/09 00:06:01;;;;;;;14.70;10.10;;;;;;;14.93;74.48;100413.91;5368901;26;33593;-81
2022/10/09 00:08:28;;;;;;;15.27;9.90;;;;;;;16.19;67.97;100406.97;5388993;26;33692;-81
2022/10/09 00:10:56;;;;;;;17.90;9.45;;;;;;;17.69;61.70;100405.16;5390347;26;34102;-80
2022/10/09 00:13:23;;;;;;;13.73;9.32;;;;;;;17.69;61.09;100405.16;5370451;26;33915;-80
2022/10/09 00:15:51;;;;;;;17.10;9.25;;;;;;;18.88;56.30;100406.22;5390335;26;34708;-81
2022/10/09 00:18:18;;;;;;;14.63;8.30;;;;;;;18.34;58.34;100401.53;5389030;26;34520;-81
2022/10/09 00:20:46;;;;;;;15.57;8.35;;;;;;;19.49;54.46;100397.75;5389427;26;33166;-81
2022/10/09 00:23:16;;;;;;;12.50;9.27;;;;;;;19.72;53.30;100393.84;5370009;26;33849;-81
2022/10/09 00:25:52;;;;;;;13.10;9.30;;;;;;;17.66;59.35;100399.84;5367212;26;33659;-81
2022/10/09 00:28:20;;;;;;;14.38;9.27;;;;;;;17.31;60.57;100386.72;5389699;26;34036;-80
2022/10/09 00:30:48;;;;;;;15.20;9.27;;;;;;;15.83;66.36;100387.50;5369409;26;32933;-81
2022/10/09 00:33:16;;;;;;;14.57;9.00;;;;;;;17.37;62.25;100380.75;5389552;26;34378;-80
2022/10/09 00:35:44;;;;;;;18.08;9.90;;;;;;;16.65;63.04;100382.19;5389772;26;34654;-80
2022/10/09 00:38:11;;;;;;;18.60;10.00;;;;;;;15.35;68.92;100387.59;5389483;26;34284;-80
2022/10/09 00:40:39;;;;;;;15.55;9.45;;;;;;;14.39;73.34;100387.50;5389361;26;33078;-80
2022/10/09 00:43:14;;;;;;;18.48;10.35;;;;;;;15.56;69.43;100382.22;5389318;26;33734;-80
2022/10/09 00:45:49;;;;;;;13.43;9.45;;;;;;;14.05;75.66;100387.06;5389870;26;34453;-80
2022/10/09 00:48:17;;;;;;;15.23;9.70;;;;;;;15.29;68.65;100372.59;5370046;26;33665;-80
2022/10/09 00:50:50;;;;;;;16.25;10.85;;;;;;;15.29;69.70;100371.72;5369403;26;33431;-80
2022/10/09 00:53:21;;;;;;;16.15;9.98;;;;;;;14.72;71.69;100373.19;5369810;26;34506;-80
2022/10/09 00:55:48;;;;;;;14.82;10.00;;;;;;;15.87;67.11;100363.25;5369361;26;33702;-80
2022/10/09 00:58:16;;;;;;;14.95;9.68;;;;;;;17.95;59.41;100366.53;5369580;26;33766;-80
2022/10/09 01:00:44;;;;;;;20.62;9.40;;;;;;;15.71;67.12;100371.41;5388780;26;33683;-81
2022/10/09 01:03:11;;;;;;;14.75;10.20;;;;;;;16.91;61.86;100351.59;5389957;26;33729;-80
2022/10/09 01:05:54;;;;;;;15.55;9.70;;;;;;;15.08;69.48;100351.88;5389706;26;33612;-81
2022/10/09 01:08:28;;;;;;;18.55;9.13;;;;;;;15.79;67.33;100354.31;5388587;26;33790;-81
2022/10/09 01:10:56;;;;;;;16.67;9.95;;;;;;;17.90;59.92;100347.19;5369788;26;33462;-80
2022/10/09 01:13:28;;;;;;;15.40;9.60;;;;;;;15.75;67.44;100356.78;5389086;26;34761;-81
2022/10/09 01:16:00;;;;;;;15.95;9.85;;;;;;;18.72;56.91;100362.13;5367736;26;33509;-81
2022/10/09 01:18:38;;;;;;;12.70;9.05;;;;;;;17.77;58.86;100356.47;5368536;26;34223;-81
2022/10/09 01:21:17;;;;;;;14.52;9.35;;;;;;;18.18;57.69;100356.59;5367218;26;33585;-80
2022/10/09 01:24:06;;;;;;;18.60;10.15;;;;;;;16.88;60.93;100361.97;5389165;26;33969;-81
2022/10/09 01:26:46;;;;;;;18.55;11.25;;;;;;;17.96;59.13;100364.78;5390056;26;33718;-80
2022/10/09 01:29:14;;;;;;;17.65;11.75;;;;;;;15.61;68.16;100371.97;5368541;26;33892;-80
2022/10/09 01:31:44;;;;;;;20.88;15.43;;;;;;;14.67;72.47;100361.69;5369665;26;34164;-80
2022/10/09 01:34:13;;;;;;;25.40;17.00;;;;;;;13.17;81.41;100366.88;5369330;26;33801;-80
2022/10/09 01:36:42;;;;;;;27.42;18.50;;;;;;;13.66;80.05;100365.53;5388059;26;34782;-80
2022/10/09 01:39:14;;;;;;;28.02;19.70;;;;;;;13.52;82.25;100368.44;5369235;26;33917;-80
2022/10/09 01:41:42;;;;;;;30.33;21.23;;;;;;;13.34;84.41;100365.94;5369454;26;34170;-80
2022/10/09 01:44:27;;;;;;;32.70;20.08;;;;;;;13.46;84.54;100373.41;5389414;26;34090;-80
2022/10/09 01:46:55;;;;;;;;;;;;;;;13.96;82.99;100372.00;5390363;26;34846;-80
2022/10/09 01:49:53;;;;;;;34.50;21.87;;;;;;;13.83;82.69;100369.72;5369568;26;34078;-80
2022/10/09 01:52:32;;;;;;;29.63;21.02;;;;;;;13.67;84.50;100369.88;5389274;26;33588;-81
2022/10/09 01:55:05;;;;;;;26.50;18.77;;;;;;;14.35;81.08;100374.38;5369333;26;33888;-80
2022/10/09 01:58:06;;;;;;;24.20;17.20;;;;;;;15.78;73.99;100355.16;5389871;26;33839;-81
2022/10/09 02:00:37;;;;;;;26.05;18.02;;;;;;;17.35;67.14;100365.00;5308516;26;33948;-80
2022/10/09 02:03:07;;;;;;;24.35;18.15;;;;;;;16.99;67.31;100365.78;5367856;26;33092;-80
2022/10/09 02:05:34;;;;;;;25.40;17.67;;;;;;;15.13;75.52;100370.31;5369212;26;34207;-80
2022/10/09 02:08:02;;;;;;;22.08;16.80;;;;;;;17.34;67.08;100370.19;5389623;26;33603;-80
2022/10/09 02:10:31;;;;;;;22.48;15.45;;;;;;;16.38;67.94;100363.97;5369270;26;34767;-80
2022/10/09 02:12:59;;;;;;;27.48;17.45;;;;;;;18.88;59.55;100372.09;5369492;26;33805;-80
2022/10/09 02:15:33;;;;;;;27.90;20.15;;;;;;;15.80;72.80;100376.97;5388927;26;34044;-80
2022/10/09 02:18:07;;;;;;;30.95;21.58;;;;;;;14.24;80.63;100385.22;5369274;26;33922;-80
2022/10/09 02:20:38;;;;;;;33.97;21.45;;;;;;;14.11;82.45;100396.84;5368641;26;33716;-80
2022/10/09 02:23:06;;;;;;;32.40;22.25;;;;;;;14.55;80.68;100400.31;5369367;26;34056;-80
2022/10/09 02:25:34;;;;;;;31.12;20.12;;;;;;;14.12;84.02;100393.44;5369847;26;34810;-80
2022/10/09 02:28:02;;;;;;;31.42;20.67;;;;;;;15.47;77.09;100392.34;5389848;26;33863;-80
2022/10/09 02:30:38;;;;;;;33.35;22.77;;;;;;;15.17;78.05;100392.19;5369859;26;34643;-80
2022/10/09 02:33:05;;;;;;;31.12;21.77;;;;;;;14.49;82.78;100394.88;5368839;26;33554;-80
2022/10/09 02:35:34;;;;;;;32.50;22.55;;;;;;;14.58;82.24;100405.66;5369311;26;33820;-81
2022/10/09 02:38:01;;;;;;;34.33;22.13;;;;;;;15.44;79.43;100397.47;5389382;26;33988;-81
2022/10/09 02:40:28;;;;;;;33.35;22.92;;;;;;;16.01;75.09;100399.41;5369790;26;33608;-80
2022/10/09 02:42:56;;;;;;;34.88;22.40;;;;;;;14.19;84.35;100405.84;5389568;26;33388;-80
2022/10/09 02:45:24;;;;;;;36.65;24.40;;;;;;;14.96;81.43;100408.84;5388717;26;33571;-80
2022/10/09 02:47:51;;;;;;;36.95;23.83;;;;;;;14.18;85.59;100409.31;5389512;26;34683;-80
2022/10/09 02:50:19;;;;;;;32.85;23.65;;;;;;;14.01;87.12;100415.56;5388611;26;33959;-80
2022/10/09 02:52:46;;;;;;;32.72;23.45;;;;;;;14.36;85.08;100420.44;5389801;26;33522;-80
2022/10/09 02:55:14;;;;;;;37.75;24.08;;;;;;;15.32;82.19;100418.84;5387618;26;33844;-80
2022/10/09 02:57:42;;;;;;;36.75;25.05;;;;;;;14.85;82.85;100425.81;5389919;26;34553;-80
2022/10/09 03:00:10;;;;;;;33.67;23.15;;;;;;;16.12;76.05;100426.78;5388829;26;34823;-80
2022/10/09 03:02:37;;;;;;;35.22;24.25;;;;;;;15.17;81.38;100429.59;5388295;26;33509;-80
2022/10/09 03:05:05;;;;;;;38.38;25.62;;;;;;;14.19;85.68;100437.13;5369008;26;34188;-80
2022/10/09 03:07:33;;;;;;;36.58;24.83;;;;;;;14.66;84.37;100445.97;5389031;26;34022;-81
2022/10/09 03:10:00;;;;;;;38.03;26.67;;;;;;;14.17;86.93;100433.56;5389089;26;33855;-80
2022/10/09 03:12:28;;;;;;;35.92;25.10;;;;;;;14.03;88.29;100432.12;5389517;26;33696;-80
2022/10/09 03:14:55;;;;;;;43.13;26.67;;;;;;;14.48;85.62;100434.78;5389386;26;34566;-80
2022/10/09 03:17:22;;;;;;;40.85;26.48;;;;;;;14.54;85.08;100435.03;5389238;26;34076;-80
2022/10/09 03:19:50;;;;;;;36.22;26.10;;;;;;;13.76;91.68;100430.16;5389230;26;33970;-81
2022/10/09 03:22:18;;;;;;;37.78;25.67;;;;;;;15.39;83.85;100439.06;5389528;26;33124;-81
2022/10/09 03:24:45;;;;;;;36.45;24.37;;;;;;;15.48;82.57;100446.34;5389230;26;33730;-80
2022/10/09 03:27:13;;;;;;;43.63;27.20;;;;;;;15.30;82.01;100438.78;5388871;26;34581;-80
2022/10/09 03:29:40;;;;;;;42.22;27.13;;;;;;;14.43;87.30;100441.53;5389244;26;34487;-80
2022/10/09 03:32:07;;;;;;;39.10;25.30;;;;;;;14.36;89.21;100441.28;5389626;26;34323;-80
2022/10/09 03:34:35;;;;;;;40.20;25.95;;;;;;;15.86;81.56;100439.88;5388976;26;34630;-80
2022/10/09 03:37:03;;;;;;;42.28;26.67;;;;;;;14.63;86.83;100443.25;5388041;26;33827;-80
2022/10/09 03:39:31;;;;;;;41.15;26.55;;;;;;;16.12;80.75;100437.22;5389472;26;34403;-81
2022/10/09 03:41:58;;;;;;;39.10;25.20;;;;;;;15.19;83.84;100437.50;5388972;26;33166;-81
2022/10/09 03:44:26;;;;;;;38.80;26.35;;;;;;;15.68;81.26;100434.91;5388541;26;34574;-81
2022/10/09 03:46:53;;;;;;;37.05;24.98;;;;;;;15.08;85.38;100444.91;5389391;26;33750;-81
2022/10/09 03:49:21;;;;;;;35.58;24.40;;;;;;;15.26;84.72;100455.13;5388386;26;34186;-80
2022/10/09 03:51:48;;;;;;;44.17;26.95;;;;;;;16.27;78.44;100448.19;5388497;26;34238;-80
2022/10/09 03:54:16;;;;;;;45.10;28.58;;;;;;;14.10;90.91;100457.59;5389533;26;34485;-81
2022/10/09 03:56:43;;;;;;;40.75;27.27;;;;;;;13.63;94.79;100470.41;5387455;26;33996;-80
2022/10/09 03:59:11;;;;;;;40.22;25.73;;;;;;;15.39;85.56;100473.00;5387986;26;33765;-81
2022/10/09 04:01:38;;;;;;;39.00;26.27;;;;;;;17.00;76.59;100466.12;5388646;26;33177;-80
2022/10/09 04:04:05;;;;;;;39.20;24.50;;;;;;;15.21;83.96;100468.03;5388387;26;34049;-80
2022/10/09 04:06:33;;;;;;;37.67;24.80;;;;;;;15.19;83.70;100468.81;5368716;26;32988;-81
2022/10/09 04:09:00;;;;;;;47.03;27.65;;;;;;;15.23;84.45;100473.31;5368359;26;33641;-80
2022/10/09 04:11:28;;;;;;;43.78;27.13;;;;;;;14.43;89.66;100471.13;5388918;26;34284;-80
2022/10/09 04:13:55;;;;;;;44.47;26.77;;;;;;;15.17;85.41;100467.87;5388913;26;33920;-80
2022/10/09 04:16:23;;;;;;;42.50;28.12;;;;;;;14.44;90.72;100458.97;5369081;26;34005;-80
2022/10/09 04:18:50;;;;;;;41.10;25.88;;;;;;;14.95;87.27;100461.84;5388603;26;34607;-80
2022/10/09 04:21:18;;;;;;;47.35;28.48;;;;;;;14.36;90.35;100456.94;5389130;26;33532;-80
2022/10/09 04:23:45;;;;;;;44.47;27.52;;;;;;;14.41;91.29;100474.47;5388782;26;33656;-80
2022/10/09 04:26:13;;;;;;;40.97;26.27;;;;;;;15.20;89.29;100470.56;5389079;26;33696;-80
2022/10/09 04:28:40;;;;;;;38.40;25.08;;;;;;;14.97;85.90;100462.78;5388378;26;33910;-80
2022/10/09 04:31:08;;;;;;;43.60;26.50;;;;;;;14.70;88.73;100473.94;5388402;26;34437;-80
2022/10/09 04:33:36;;;;;;;42.45;26.08;;;;;;;14.85;87.63;100472.75;5388596;26;33795;-80
2022/10/09 04:36:03;;;;;;;43.60;26.70;;;;;;;14.43;90.10;100480.63;5389235;26;33905;-81
2022/10/09 04:38:31;;;;;;;37.47;24.23;;;;;;;15.12;88.68;100496.38;5388737;26;34101;-80
2022/10/09 04:41:00;;;;;;;42.53;25.62;;;;;;;15.29;84.96;100486.56;5368440;26;34378;-81
2022/10/09 04:43:28;;;;;;;41.37;26.37;;;;;;;14.80;88.31;100489.97;5388516;26;34704;-81
2022/10/09 04:45:55;;;;;;;42.13;27.33;;;;;;;14.96;87.31;100502.75;5389199;26;33956;-80
2022/10/09 04:48:24;;;;;;;45.58;27.20;;;;;;;14.77;90.03;100510.69;5388680;26;34009;-81
2022/10/09 04:50:51;;;;;;;43.65;26.10;;;;;;;14.89;89.82;100516.38;5350289;26;33197;-80
2022/10/09 04:53:18;;;;;;;42.88;26.20;;;;;;;14.63;89.84;100538.84;5389120;26;34003;-81
2022/10/09 04:55:46;;;;;;;45.50;26.90;;;;;;;15.59;86.82;100535.50;5389065;26;33649;-80
2022/10/09 04:58:13;;;;;;;40.00;23.98;;;;;;;15.32;85.45;100533.69;5389711;26;33495;-81
2022/10/09 05:00:43;;;;;;;38.42;23.67;;;;;;;16.86;79.50;100533.72;5390056;26;33439;-81
2022/10/09 05:03:11;;;;;;;34.00;21.15;;;;;;;18.78;69.32;100535.47;5389721;26;34344;-81
2022/10/09 05:05:38;;;;;;;33.85;20.60;;;;;;;19.12;67.20;100525.75;5389006;26;34401;-81
2022/10/09 05:08:06;;;;;;;33.13;22.48;;;;;;;19.62;65.29;100525.88;5388280;26;33840;-81
2022/10/09 05:10:34;;;;;;;33.80;21.30;;;;;;;19.63;65.37;100519.78;5390072;26;33580;-81
2022/10/09 05:13:01;;;;;;;33.58;20.90;;;;;;;20.45;61.76;100516.88;5389976;26;34000;-81
2022/10/09 05:15:28;;;;;;;34.83;21.95;;;;;;;18.35;67.51;100529.16;5389498;26;33711;-81
2022/10/09 05:17:56;;;;;;;34.40;21.25;;;;;;;16.94;76.96;100540.12;5389085;26;33901;-81
2022/10/09 05:20:23;;;;;;;36.60;22.92;;;;;;;17.23;75.09;100529.59;5389053;26;34141;-81
2022/10/09 05:22:51;;;;;;;38.08;22.65;;;;;;;17.10;74.52;100524.00;5389889;26;33990;-80
2022/10/09 05:25:19;;;;;;;34.35;22.37;;;;;;;15.46;84.50;100540.28;5369291;26;34857;-80
2022/10/09 05:27:46;;;;;;;34.00;22.27;;;;;;;16.17;79.65;100534.06;5389344;26;34011;-80
2022/10/09 05:30:14;;;;;;;42.25;25.08;;;;;;;17.98;72.24;100543.97;5390521;26;33436;-80
2022/10/09 05:32:41;;;;;;;37.55;23.00;;;;;;;14.89;86.78;100537.25;5390063;26;33829;-81
2022/10/09 05:35:09;;;;;;;34.70;23.05;;;;;;;16.87;77.60;100535.53;5389685;26;33941;-81
2022/10/09 05:37:36;;;;;;;34.60;22.95;;;;;;;16.00;81.34;100541.38;5390401;26;34631;-81
2022/10/09 05:40:04;;;;;;;34.60;22.45;;;;;;;16.37;78.72;100534.75;5389075;26;34366;-80
2022/10/09 05:42:32;;;;;;;35.17;21.70;;;;;;;15.63;82.93;100542.63;5389578;26;33990;-81
2022/10/09 05:44:59;;;;;;;33.65;20.98;;;;;;;17.77;73.84;100545.13;5369492;26;33974;-80
2022/10/09 05:47:29;;;;;;;31.50;21.23;;;;;;;19.43;65.65;100543.94;5390213;26;34510;-81
2022/10/09 05:49:56;;;;;;;34.25;20.35;;;;;;;18.40;68.05;100543.28;5389912;26;32979;-81
2022/10/09 05:52:24;;;;;;;32.75;20.23;;;;;;;18.25;70.20;100538.53;5389104;26;34370;-81
2022/10/09 05:54:51;;;;;;;30.05;19.55;;;;;;;19.07;66.62;100543.16;5389095;26;34451;-81
2022/10/09 05:57:19;;;;;;;31.10;19.42;;;;;;;18.96;66.30;100541.16;5388568;26;33894;-80
2022/10/09 05:59:46;;;;;;;28.92;19.60;;;;;;;19.37;64.56;100542.91;5386125;26;33921;-82
2022/10/09 06:02:14;;;;;;;30.37;19.92;;;;;;;18.89;66.07;100544.50;5389731;26;33511;-81
2022/10/09 06:04:41;;;;;;;34.35;21.48;;;;;;;19.00;65.87;100547.38;5390183;26;33942;-81
2022/10/09 06:07:09;;;;;;;31.30;19.92;;;;;;;17.92;68.41;100549.03;5368629;26;34526;-82
2022/10/09 06:09:37;;;;;;;34.28;23.10;;;;;;;16.00;77.94;100562.25;5389734;26;33547;-82
2022/10/09 06:12:05;;;;;;;33.95;21.77;;;;;;;16.75;76.94;100556.03;5368591;26;34288;-82
2022/10/09 06:14:32;;;;;;;37.67;22.77;;;;;;;16.18;77.31;100555.03;5388494;26;33770;-82
2022/10/09 06:17:00;;;;;;;34.22;23.40;;;;;;;16.02;81.12;100564.09;5388959;26;34082;-82
2022/10/09 06:19:28;;;;;;;39.17;22.17;;;;;;;17.30;74.80;100563.00;5389346;26;33914;-82
2022/10/09 06:21:55;;;;;;;36.58;22.87;;;;;;;15.65;82.53;100578.41;5388561;26;34737;-82
2022/10/09 06:24:23;;;;;;;34.28;22.20;;;;;;;15.63;81.80;100587.03;5388461;26;34838;-84
2022/10/09 06:26:56;;;;;;;34.67;19.95;;;;;;;17.51;72.47;100577.56;5388876;26;34369;-82
2022/10/09 06:29:24;;;;;;;31.25;19.10;;;;;;;17.66;71.64;100578.88;5387580;26;34180;-80
2022/10/09 06:31:51;;;;;;;28.08;17.27;;;;;;;18.95;66.53;100576.16;5389038;26;33795;-81
2022/10/09 06:34:19;;;;;;;29.35;18.30;;;;;;;18.84;66.73;100578.50;5388472;26;34068;-79
2022/10/09 06:36:46;;;;;;;30.12;19.27;;;;;;;18.60;67.10;100594.53;5388296;26;33949;-82
2022/10/09 06:39:14;;;;;;;31.30;18.98;;;;;;;17.67;69.84;100591.16;5389564;26;34328;-83
2022/10/09 06:41:41;;;;;;;29.52;19.00;;;;;;;18.35;68.73;100592.13;5388582;26;33883;-82
2022/10/09 06:44:11;;;;;;;28.05;17.80;;;;;;;17.99;69.77;100588.56;5387742;26;33605;-81
2022/10/09 06:46:44;;;;;;;28.50;18.62;;;;;;;18.77;67.34;100591.41;5389125;26;34829;-81
2022/10/09 06:49:11;;;;;;;28.75;16.37;;;;;;;18.18;68.47;100595.19;5389370;26;33283;-81
2022/10/09 06:51:38;;;;;;;26.52;17.05;;;;;;;18.69;66.95;100592.97;5389316;26;33402;-78
2022/10/09 06:54:12;;;;;;;25.23;15.18;;;;;;;18.91;65.57;100595.31;5389363;26;33768;-78
2022/10/09 06:56:39;;;;;;;31.75;17.08;;;;;;;18.22;67.81;100607.53;5389375;26;33741;-78
2022/10/09 06:59:08;;;;;;;25.25;15.40;;;;;;;18.37;67.76;100604.44;5389219;26;34274;-79
2022/10/09 07:01:35;;;;;;;27.13;16.08;;;;;;;18.73;66.00;100606.19;5368840;26;33703;-79
2022/10/09 07:04:11;;;;;;;25.10;15.60;;;;;;;18.81;65.53;100603.78;5389566;26;33657;-78
2022/10/09 07:06:43;;;;;;;23.80;15.73;;;;;;;19.25;63.62;100606.56;5389386;26;34147;-79
2022/10/09 07:09:12;;;;;;;24.65;14.82;;;;;;;19.57;62.86;100612.53;5389595;26;34448;-79
2022/10/09 07:11:42;;;;;;;26.33;16.30;;;;;;;20.28;60.89;100610.41;5389705;26;34950;-80
2022/10/09 07:14:12;;;;;;;22.27;15.13;;;;;;;17.63;69.18;100614.59;5389556;26;34682;-81
2022/10/09 07:16:42;;;;;;;23.23;15.82;;;;;;;20.03;61.84;100615.25;5389409;26;33286;-79
2022/10/09 07:19:11;;;;;;;21.33;14.68;;;;;;;19.27;63.38;100612.75;5386337;26;34604;-79
2022/10/09 07:21:41;;;;;;;19.62;13.35;;;;;;;20.43;59.52;100610.69;5389205;26;34155;-79
2022/10/09 07:24:09;;;;;;;18.87;12.85;;;;;;;20.21;59.82;100623.47;5388114;26;34554;-79
2022/10/09 07:26:39;;;;;;;20.30;13.82;;;;;;;20.21;60.23;100620.84;5389356;26;33275;-80
2022/10/09 07:29:08;;;;;;;19.37;12.30;;;;;;;18.09;67.05;100634.28;5388815;26;35110;-79
2022/10/09 07:31:36;;;;;;;18.50;12.30;;;;;;;19.49;61.09;100626.34;5389149;26;34197;-80
2022/10/09 07:34:05;;;;;;;17.75;13.15;;;;;;;16.84;72.66;100629.59;5367418;26;33418;-80
2022/10/09 07:36:32;;;;;;;23.15;14.05;;;;;;;18.66;66.06;100623.53;5366851;26;32196;-78
2022/10/09 07:39:00;;;;;;;19.02;13.32;;;;;;;17.23;70.50;100630.00;5369295;26;33667;-79
2022/10/09 07:41:28;;;;;;;18.98;12.75;;;;;;;19.50;63.68;100628.13;5388999;26;33894;-80
2022/10/09 07:43:56;;;;;;;22.15;13.98;;;;;;;18.97;64.69;100629.56;5369375;26;33701;-79
2022/10/09 07:46:25;;;;;;;21.58;13.18;;;;;;;18.72;65.59;100635.06;5389056;26;33884;-79
2022/10/09 07:48:59;;;;;;;18.30;12.20;;;;;;;18.23;66.87;100630.31;5386135;26;34126;-80
2022/10/09 07:51:28;;;;;;;20.00;13.20;;;;;;;17.08;70.38;100635.62;5388679;26;34039;-80
2022/10/09 07:53:56;;;;;;;19.65;13.02;;;;;;;17.85;68.41;100632.75;5388583;26;33613;-79
2022/10/09 07:56:28;;;;;;;18.40;11.93;;;;;;;18.87;63.93;100624.94;5388438;26;33902;-80
2022/10/09 07:58:58;;;;;;;18.67;11.48;;;;;;;19.24;63.17;100631.09;5388583;26;34283;-80
2022/10/09 08:01:26;;;;;;;17.52;11.25;;;;;;;17.17;70.16;100629.81;5387793;26;33674;-81
2022/10/09 08:03:55;;;;;;;20.05;11.88;;;;;;;17.20;70.26;100623.78;5369473;26;34424;-79
2022/10/09 08:06:23;;;;;;;17.70;11.90;;;;;;;18.13;66.04;100632.63;5389396;26;34077;-79
2022/10/09 08:08:52;;;;;;;15.32;10.48;;;;;;;18.28;65.76;100631.31;5368052;26;31968;-79
2022/10/09 08:11:21;;;;;;;19.60;11.52;;;;;;;18.19;65.63;100628.44;5368915;26;33980;-80
2022/10/09 08:13:49;;;;;;;18.75;11.75;;;;;;;18.67;64.73;100621.81;5388256;26;33978;-80
2022/10/09 08:16:17;;;;;;;20.42;10.90;;;;;;;18.89;63.86;100627.59;5389222;26;34389;-80
2022/10/09 08:18:45;;;;;;;20.40;11.60;;;;;;;18.72;64.08;100629.81;5388907;26;33714;-80
2022/10/09 08:21:15;;;;;;;15.45;10.82;;;;;;;19.61;62.15;100624.00;5388848;26;34033;-80
2022/10/09 08:23:43;;;;;;;16.52;10.23;;;;;;;19.42;62.38;100623.59;5389206;26;34525;-80
2022/10/09 08:26:18;;;;;;;15.15;10.32;;;;;;;19.67;60.57;100629.38;5388655;26;33564;-81
2022/10/09 08:28:53;;;;;;;13.75;9.00;;;;;;;19.00;62.29;100621.75;5350467;26;33459;-81
2022/10/09 08:31:22;;;;;;;15.82;9.10;;;;;;;19.68;59.68;100623.25;5350172;26;31643;-80
2022/10/09 08:33:54;;;;;;;20.00;10.52;;;;;;;18.75;63.59;100624.63;5351321;26;33458;-78
2022/10/09 08:36:22;;;;;;;15.05;9.95;;;;;;;18.94;64.74;100626.87;5389513;26;34004;-80
2022/10/09 08:38:50;;;;;;;19.25;10.82;;;;;;;18.98;63.14;100633.09;5389290;26;33346;-79
2022/10/09 08:41:41;;;;;;;17.33;10.80;;;;;;;17.96;67.06;100637.41;5369966;26;34707;-80
2022/10/09 08:44:10;;;;;;;16.80;10.07;;;;;;;17.92;68.16;100635.53;5379078;26;33570;-80
2022/10/09 08:47:13;;;;;;;12.73;8.90;;;;;;;19.69;61.52;100630.31;5369887;26;33995;-79
2022/10/09 08:49:44;;;;;;;14.75;8.63;;;;;;;18.33;64.42;100635.78;5367252;26;33836;-80
2022/10/09 08:52:25;;;;;;;13.60;8.77;;;;;;;19.80;59.46;100646.34;5368343;26;33180;-80
2022/10/09 08:54:55;;;;;;;13.60;8.07;;;;;;;18.27;63.78;100642.66;5387987;26;33688;-80
2022/10/09 08:57:31;;;;;;;11.82;7.45;;;;;;;17.72;65.13;100646.31;5368025;26;33618;-79
2022/10/09 08:59:59;;;;;;;12.18;6.68;;;;;;;19.36;59.68;100643.59;5368405;26;34072;-81
2022/10/09 09:02:48;;;;;;;11.55;6.30;;;;;;;20.23;55.97;100650.69;5387940;26;33547;-79
2022/10/09 09:05:32;;;;;;;11.40;7.03;;;;;;;20.16;55.58;100654.06;5388766;26;33663;-80
2022/10/09 09:08:42;;;;;;;11.73;7.18;;;;;;;19.82;57.90;100658.66;5368088;26;34198;-80
2022/10/09 09:11:20;;;;;;;15.07;7.03;;;;;;;19.12;59.32;100657.03;5388946;26;33776;-79
2022/10/09 09:13:54;;;;;;;10.93;5.90;;;;;;;18.32;60.79;100661.13;5390287;26;34054;-79
2022/10/09 09:16:47;;;;;;;9.98;6.45;;;;;;;20.88;54.64;100654.50;5388796;26;33861;-80
2022/10/09 09:19:39;;;;;;;9.13;6.05;;;;;;;19.12;58.25;100657.03;5389474;26;34674;-79
2022/10/09 09:22:12;;;;;;;10.93;6.53;;;;;;;20.02;55.70;100663.44;5369985;26;34087;-80
2022/10/09 09:25:00;;;;;;;10.02;5.50;;;;;;;19.55;56.22;100658.91;5370487;26;34044;-79
2022/10/09 09:27:31;;;;;;;11.50;5.68;;;;;;;21.33;51.44;100656.06;5390150;26;34781;-79
2022/10/09 09:30:10;;;;;;;12.90;6.40;;;;;;;21.47;51.54;100660.69;5390215;26;34652;-81
2022/10/09 09:32:52;;;;;;;11.23;6.87;;;;;;;21.58;51.71;100661.72;5389595;26;33334;-80
2022/10/09 09:35:45;;;;;;;11.00;6.57;;;;;;;19.17;57.18;100661.56;5390067;26;34557;-79
2022/10/09 09:38:13;;;;;;;8.52;6.12;;;;;;;20.92;52.41;100664.22;5390057;26;34491;-80
2022/10/09 09:40:42;;;;;;;11.25;6.07;;;;;;;19.79;55.04;100666.47;5389887;26;34888;-79
2022/10/09 09:43:17;;;;;;;9.38;5.85;;;;;;;19.37;55.71;100671.63;5352939;26;34393;-80
2022/10/09 09:45:45;;;;;;;8.82;5.18;;;;;;;20.29;53.32;100676.22;5370238;26;34068;-80
2022/10/09 09:48:22;;;;;;;9.23;4.53;;;;;;;21.98;48.18;100667.50;5369823;26;33598;-79
2022/10/09 09:50:53;;;;;;;10.15;5.18;;;;;;;21.55;48.70;100667.81;5389925;26;33663;-80
2022/10/09 09:53:42;;;;;;;9.35;5.30;;;;;;;21.66;48.43;100667.09;5373585;26;33321;-80
2022/10/09 09:56:10;;;;;;;8.38;5.25;;;;;;;22.12;47.58;100671.19;5390264;26;34190;-79
2022/10/09 09:58:49;;;;;;;10.50;5.37;;;;;;;22.02;47.82;100674.59;5369853;26;33750;-80
2022/10/09 10:01:28;;;;;;;8.88;5.80;;;;;;;20.50;52.11;100669.59;5351602;26;33968;-80
2022/10/09 10:03:58;;;;;;;6.70;5.00;;;;;;;19.68;54.73;100674.94;5390032;26;33380;-79
2022/10/09 10:06:34;;;;;;;7.80;5.12;;;;;;;21.85;48.85;100670.87;5390255;26;33680;-80
2022/10/09 10:09:13;;;;;;;8.10;4.50;;;;;;;21.51;49.69;100676.56;5370301;26;34922;-80
2022/10/09 10:11:44;;;;;;;8.52;5.28;;;;;;;23.75;44.72;100677.84;5390296;26;34540;-80
2022/10/09 10:14:13;;;;;;;8.43;4.78;;;;;;;23.80;42.63;100677.03;5390018;26;33564;-80
2022/10/09 10:16:41;;;;;;;7.35;4.80;;;;;;;23.39;43.36;100673.25;5389974;26;33954;-80
2022/10/09 10:19:21;;;;;;;9.38;5.00;;;;;;;23.22;45.06;100670.50;5387215;26;33831;-80
2022/10/09 10:22:02;;;;;;;8.98;5.35;;;;;;;22.76;47.71;100660.41;5369529;26;34664;-79
2022/10/09 10:24:37;;;;;;;6.57;4.43;;;;;;;24.03;44.29;100672.72;5389723;26;33927;-79
2022/10/09 10:27:20;;;;;;;6.97;4.57;;;;;;;23.38;42.81;100665.31;5389974;26;34060;-80
2022/10/09 10:29:49;;;;;;;8.48;4.75;;;;;;;23.53;41.31;100670.72;5389754;26;33920;-81
2022/10/09 10:32:23;;;;;;;7.90;4.95;;;;;;;24.47;40.23;100677.25;5369726;26;34024;-80
2022/10/09 10:35:01;;;;;;;9.52;4.72;;;;;;;25.09;39.25;100675.56;5389647;26;33158;-80
2022/10/09 10:37:41;;;;;;;7.78;4.95;;;;;;;25.09;39.44;100674.66;5351679;26;34070;-80
2022/10/09 10:40:28;;;;;;;8.85;5.43;;;;;;;24.95;38.95;100676.44;5390056;26;34502;-80
2022/10/09 10:43:08;;;;;;;7.62;4.80;;;;;;;25.09;38.11;100672.00;5370069;26;33764;-81
2022/10/09 10:45:51;;;;;;;9.30;4.95;;;;;;;25.37;38.18;100669.34;5389802;26;34250;-82
2022/10/09 10:48:29;;;;;;;7.80;4.82;;;;;;;26.04;37.77;100674.47;5389992;26;34574;-81
2022/10/09 10:51:28;;;;;;;11.00;5.50;;;;;;;25.83;38.33;100670.09;5389892;26;33896;-79
2022/10/09 10:54:07;;;;;;;6.70;4.95;;;;;;;24.48;40.93;100681.66;5389455;26;34006;-80
2022/10/09 10:56:48;;;;;;;8.18;5.20;;;;;;;24.27;41.33;100668.38;5369434;26;33367;-80
2022/10/09 10:59:34;;;;;;;7.37;4.78;;;;;;;26.33;37.42;100662.81;5369675;26;33679;-81
2022/10/09 11:02:16;;;;;;;9.07;4.87;;;;;;;25.73;38.46;100664.81;5369986;26;33913;-80
2022/10/09 11:04:50;;;;;;;10.20;5.05;;;;;;;26.21;36.71;100654.88;5390246;26;34040;-80
2022/10/09 11:07:35;;;;;;;7.90;4.45;;;;;;;26.31;36.32;100667.25;5389783;26;33312;-80
2022/10/09 11:10:02;;;;;;;;;;;;;;;26.28;36.23;100660.16;5367190;26;34038;-79
2022/10/09 11:12:53;;;;;;;7.40;3.87;;;;;;;26.13;35.71;100652.28;5389825;26;33895;-80
2022/10/09 11:16:03;;;;;;;6.85;4.20;;;;;;;26.45;34.73;100652.09;5370067;26;33905;-79
2022/10/09 11:18:46;;;;;;;6.87;4.22;;;;;;;26.34;35.80;100655.72;5355916;26;33605;-80
2022/10/09 11:21:44;;;;;;;8.00;4.05;;;;;;;25.69;36.60;100656.88;5368285;26;34004;-80
2022/10/09 11:24:25;;;;;;;7.53;4.50;;;;;;;25.63;37.43;100661.31;5369199;26;33980;-80
2022/10/09 11:27:04;;;;;;;7.72;4.75;;;;;;;25.24;38.54;100649.94;5389519;26;34544;-79
2022/10/09 11:29:36;;;;;;;7.25;4.43;;;;;;;23.98;40.31;100653.28;5389536;26;33562;-80
2022/10/09 11:32:46;;;;;;;7.15;3.70;;;;;;;24.60;38.75;100648.16;5369300;26;33956;-80
2022/10/09 11:35:27;;;;;;;7.40;3.50;;;;;;;26.16;35.25;100646.09;5367689;26;33641;-80